MMMD

Licenciado Manuel Crescencio Rejon Int Airport

Mérida, Mexico
TAF MMMD 221103Z 2212/2318 07005KT P6SM SKC TX27/2220Z TN17/2212Z TEMPO 2212/2216 BKN012 FM221800 12010KT P6SM BKN020 BKN250 FM230600 09005KT P6SM SCT020 TEMPO 2312/2316 5SM HZ BKN010 FM231700 12012KT P6SM BKN020 BKN250
Issued Valid From Valid To
Jan-22 @ 11:03 UTC
(6 hours ago)
Jan-22 @ 12:00 UTC
(5 hours ago)
Jan-23 @ 18:00 UTC
(-1 days ago)
Jan-22 @ 12:00 to Jan-22 @ 18:00
TAF MMMD 221103Z 2212/2318 07005KT P6SM SKC TX27/2220Z TN17/2212Z
Wind Visibility Clouds
70° at 5 knots Greater than 6 miles
  • Clear skies
Expired Click to View Jan-22 @ 12:00 to Jan-22 @ 16:00
TEMPO 2212/2216 BKN012
Clouds
  • Broken at 1,200' AGL
From Jan-22 @ 18:00 to Jan-23 @ 06:00
FM221800 12010KT P6SM BKN020 BKN250
Wind Visibility Clouds
120° at 10 knots Greater than 6 miles
  • Broken at 2,000' AGL
  • Broken at 25,000' AGL
From Jan-23 @ 06:00 to Jan-23 @ 17:00
FM230600 09005KT P6SM SCT020
Wind Visibility Clouds
90° at 5 knots Greater than 6 miles
  • Scattered at 2,000' AGL
Temporary Jan-23 @ 12:00 to Jan-23 @ 16:00
TEMPO 2312/2316 5SM HZ BKN010
Visibility Clouds Conditions
5 miles
  • Broken at 1,000' AGL
  • Haze
From Jan-23 @ 17:00 to Jan-23 @ 18:00
FM231700 12012KT P6SM BKN020 BKN250
Wind Visibility Clouds
120° at 12 knots Greater than 6 miles
  • Broken at 2,000' AGL
  • Broken at 25,000' AGL
TAF MMMD 221103Z 2212/2318 07005KT P6SM SKC TX27/2220Z TN17/2212Z TEMPO 2212/2216 BKN012 FM221800 12010KT P6SM BKN020 BKN250 FM230600 09005KT P6SM SCT020 TEMPO 2312/2316 5SM HZ BKN010 FM231700 12012KT P6SM BKN020 BKN250
Issued Jan-22 @ 11:03 UTC
(6 hours ago)
Valid From Jan-22 @ 12:00 UTC
(5 hours ago)
Valid To Jan-23 @ 18:00 UTC
(-1 days ago)
Jan-22 @ 12:00 - Jan-22 @ 18:00
Wind Visibility
70° at 5 knots Greater than 6 miles
Clouds
  • Clear skies
Jan-22 @ 12:00 - Jan-22 @ 16:00
Clouds
  • Broken at 1,200' AGL
From Jan-22 @ 18:00 - Jan-23 @ 06:00
Wind Visibility
120° at 10 knots Greater than 6 miles
Clouds
  • Broken at 2,000' AGL
  • Broken at 25,000' AGL
From Jan-23 @ 06:00 - Jan-23 @ 17:00
Wind Visibility
90° at 5 knots Greater than 6 miles
Clouds
  • Scattered at 2,000' AGL
Temporary Jan-23 @ 12:00 - Jan-23 @ 16:00
Clouds
  • Broken at 1,000' AGL
Conditions
  • Haze
From Jan-23 @ 17:00 - Jan-23 @ 18:00
Wind Visibility
120° at 12 knots Greater than 6 miles
Clouds
  • Broken at 2,000' AGL
  • Broken at 25,000' AGL